createdAt,value
2023-04-24T00:01:40.722Z,99806.88
2023-04-24T00:04:11.446Z,99804.31
2023-04-24T00:06:43.416Z,99810.31
2023-04-24T00:09:12.873Z,99807.69
2023-04-24T00:11:41.943Z,99801.81
2023-04-24T00:14:11.247Z,99788.13
2023-04-24T00:16:42.294Z,99816.47
2023-04-24T00:19:13.338Z,99812.94
2023-04-24T00:21:43.919Z,99807.50
2023-04-24T00:24:13.174Z,99806.41
2023-04-24T00:26:47.916Z,99809.03
2023-04-24T00:29:17.214Z,99804.00
2023-04-24T00:31:54.521Z,99814.38
2023-04-24T00:34:23.795Z,99810.19
2023-04-24T00:36:53.360Z,99789.72
2023-04-24T00:39:23.536Z,99811.31
2023-04-24T00:41:54.289Z,99809.66
2023-04-24T00:44:23.919Z,99812.31
2023-04-24T00:46:57.153Z,99817.53
2023-04-24T00:49:27.781Z,99815.88
2023-04-24T00:51:57.504Z,99812.50
2023-04-24T00:54:26.658Z,99818.53
2023-04-24T00:56:55.920Z,99814.25
2023-04-24T00:59:25.332Z,99815.16
2023-04-24T01:04:32.424Z,99822.00
2023-04-24T01:07:01.702Z,99817.75
2023-04-24T01:09:31.113Z,99818.66
2023-04-24T01:12:01.492Z,99813.50
2023-04-24T01:14:40.957Z,99812.66
2023-04-24T01:17:14.196Z,99817.84
2023-04-24T01:19:45.478Z,99812.66
2023-04-24T01:22:17.759Z,99816.16
2023-04-24T01:24:48.572Z,99815.28
2023-04-24T01:27:18.330Z,99811.84
2023-04-24T01:29:55.280Z,99805.84
2023-04-24T01:32:24.900Z,99804.09
2023-04-24T01:34:59.406Z,99804.09
2023-04-24T01:37:32.284Z,99808.41
2023-04-24T01:40:09.622Z,99798.97
2023-04-24T01:42:39.019Z,99804.09
2023-04-24T01:45:11.099Z,99798.94
2023-04-24T01:47:41.395Z,99807.53
2023-04-24T01:50:12.062Z,99806.69
2023-04-24T01:52:44.022Z,99799.81
2023-04-24T01:55:13.754Z,99799.81
2023-04-24T01:57:43.252Z,99794.66
2023-04-24T02:00:14.154Z,99779.25
2023-04-24T02:02:47.376Z,99801.56
2023-04-24T02:05:17.738Z,99808.41
2023-04-24T02:07:48.977Z,99811.88
2023-04-24T02:10:18.767Z,99810.09
2023-04-24T02:12:49.290Z,99784.34
2023-04-24T02:15:24.803Z,99805.81
2023-04-24T02:17:54.533Z,99811.81
2023-04-24T02:20:23.935Z,99801.53
2023-04-24T02:23:05.348Z,99803.22
2023-04-24T02:25:35.981Z,99810.94
2023-04-24T02:28:05.262Z,99806.63
2023-04-24T02:30:36.824Z,99809.19
2023-04-24T02:33:11.720Z,99803.19
2023-04-24T02:35:41.041Z,99805.75
2023-04-24T02:38:12.656Z,99810.88
2023-04-24T02:40:43.190Z,99818.59
2023-04-24T02:43:13.983Z,99820.34
2023-04-24T02:45:43.464Z,99796.28
2023-04-24T02:48:12.969Z,99811.69
2023-04-24T02:50:42.375Z,99824.56
2023-04-24T02:53:24.999Z,99833.16
2023-04-24T02:55:54.693Z,99828.84
2023-04-24T02:58:24.088Z,99827.97
2023-04-24T03:00:56.677Z,99827.94
2023-04-24T03:03:26.996Z,99825.34
2023-04-24T03:06:01.583Z,99830.44
2023-04-24T03:08:32.984Z,99836.44
2023-04-24T03:11:07.441Z,99833.78
2023-04-24T03:13:37.921Z,99828.59
2023-04-24T03:16:08.100Z,99830.25
2023-04-24T03:18:37.687Z,99834.50
2023-04-24T03:21:08.618Z,99830.13
2023-04-24T03:23:43.535Z,99835.22
2023-04-24T03:26:13.413Z,99834.34
2023-04-24T03:28:53.383Z,99834.25
2023-04-24T03:31:24.211Z,99835.03
2023-04-24T03:33:53.900Z,99832.34
2023-04-24T03:36:29.015Z,99832.25
2023-04-24T03:39:06.096Z,99839.78
2023-04-24T03:41:38.426Z,99824.97
2023-04-24T03:44:14.101Z,99799.19
2023-04-24T03:46:44.280Z,99837.63
2023-04-24T03:49:28.367Z,99839.22
2023-04-24T03:51:58.165Z,99846.16
2023-04-24T03:54:32.650Z,99837.38
2023-04-24T03:57:08.862Z,99839.13
2023-04-24T03:59:42.781Z,99840.66
2023-04-24T04:02:23.761Z,99845.56
2023-04-24T04:04:58.534Z,99846.97
2023-04-24T04:07:30.453Z,99852.78
2023-04-24T04:10:01.792Z,99847.25
2023-04-24T04:12:32.954Z,99837.38
2023-04-24T04:15:02.221Z,99844.41
2023-04-24T04:17:46.567Z,99843.13
2023-04-24T04:20:16.201Z,99853.31
2023-04-24T04:22:45.791Z,99843.28
2023-04-24T04:25:27.219Z,99844.13
2023-04-24T04:27:56.732Z,99844.88
2023-04-24T04:33:06.091Z,99849.09
2023-04-24T04:35:39.023Z,99827.59
2023-04-24T04:38:13.520Z,99840.19
2023-04-24T04:41:07.881Z,99846.84
2023-04-24T04:43:38.888Z,99847.31
2023-04-24T04:46:09.149Z,99847.16
2023-04-24T04:49:00.238Z,99847.03
2023-04-24T04:51:42.851Z,99853.03
2023-04-24T04:54:13.407Z,99854.72
2023-04-24T04:56:45.305Z,99855.56
2023-04-24T04:59:15.305Z,99859.63
2023-04-24T05:01:44.633Z,99857.63
2023-04-24T05:04:16.371Z,99858.41
2023-04-24T05:06:47.853Z,99857.50
2023-04-24T05:09:17.231Z,99857.56
2023-04-24T05:11:54.008Z,99860.13
2023-04-24T05:14:25.173Z,99862.63
2023-04-24T05:17:00.108Z,99855.63
2023-04-24T05:19:29.768Z,99855.59
2023-04-24T05:21:59.370Z,99863.25
2023-04-24T05:24:34.462Z,99864.94
2023-04-24T05:27:23.552Z,99857.00
2023-04-24T05:29:53.320Z,99856.16
2023-04-24T05:32:22.576Z,99860.44
2023-04-24T05:34:51.821Z,99860.34
2023-04-24T05:37:21.243Z,99862.75
2023-04-24T05:39:50.789Z,99859.84
2023-04-24T05:42:20.079Z,99859.59
2023-04-24T05:45:04.415Z,99861.09
2023-04-24T05:47:37.349Z,99856.41
2023-04-24T05:50:17.744Z,99857.94
2023-04-24T05:52:47.154Z,99852.53
2023-04-24T05:55:27.429Z,99858.28
2023-04-24T05:57:57.097Z,99856.41
2023-04-24T06:00:30.092Z,99840.78
2023-04-24T06:03:06.874Z,99857.59
2023-04-24T06:05:36.925Z,99855.63
2023-04-24T06:08:07.003Z,99857.22
2023-04-24T06:10:40.947Z,99850.91
2023-04-24T06:13:11.907Z,99853.03
2023-04-24T06:15:46.697Z,99859.97
2023-04-24T06:18:23.433Z,99854.63
2023-04-24T06:20:53.035Z,99862.25
2023-04-24T06:23:22.247Z,99861.16
2023-04-24T06:25:57.113Z,99858.22
2023-04-24T06:28:26.350Z,99858.84
2023-04-24T06:30:57.933Z,99856.72
2023-04-24T06:33:27.440Z,99833.22
2023-04-24T06:35:56.843Z,99857.72
2023-04-24T06:38:26.521Z,99858.34
2023-04-24T06:40:55.833Z,99848.69
2023-04-24T06:43:25.463Z,99854.44
2023-04-24T06:45:54.886Z,99858.34
2023-04-24T06:48:29.203Z,99862.31
2023-04-24T06:50:58.716Z,99854.06
2023-04-24T06:53:28.175Z,99852.03
2023-04-24T06:55:57.652Z,99860.47
2023-04-24T06:58:27.810Z,99865.25
2023-04-24T07:00:57.622Z,99842.38
2023-04-24T07:06:24.951Z,99858.25
2023-04-24T07:08:54.482Z,99852.00
2023-04-24T07:11:23.856Z,99859.41
2023-04-24T07:13:53.197Z,99856.75
2023-04-24T07:16:22.569Z,99853.00
2023-04-24T07:21:28.807Z,99859.63
2023-04-24T07:23:58.011Z,99856.72
2023-04-24T07:26:28.044Z,99852.94
2023-04-24T07:28:57.711Z,99860.72
2023-04-24T07:31:31.291Z,99845.63
2023-04-24T07:36:39.006Z,99852.13
2023-04-24T07:39:08.873Z,99853.69
2023-04-24T07:44:12.778Z,99853.06
2023-04-24T07:46:42.593Z,99841.38
2023-04-24T07:49:14.897Z,99848.13
2023-04-24T07:51:45.283Z,99846.28
2023-04-24T07:54:14.956Z,99852.97
2023-04-24T07:56:49.909Z,99815.53
2023-04-24T07:59:24.526Z,99840.63
2023-04-24T08:01:54.788Z,99845.44
2023-04-24T08:04:26.399Z,99841.22
2023-04-24T08:07:08.329Z,99840.28
2023-04-24T08:09:37.625Z,99847.47
2023-04-24T08:12:07.413Z,99835.03
2023-04-24T08:14:36.690Z,99829.66
2023-04-24T08:17:20.999Z,99829.31
2023-04-24T08:20:01.999Z,99838.81
2023-04-24T08:22:40.524Z,99832.84
2023-04-24T08:25:11.501Z,99833.84
2023-04-24T08:30:23.877Z,99825.34
2023-04-24T08:32:53.070Z,99820.63
2023-04-24T08:35:24.692Z,99827.59
2023-04-24T08:37:55.610Z,99823.25
2023-04-24T08:40:31.035Z,99787.22
2023-04-24T08:43:02.215Z,99807.22
2023-04-24T08:45:32.373Z,99809.31
2023-04-24T08:48:03.236Z,99809.88
2023-04-24T08:50:35.710Z,99793.03
2023-04-24T08:53:05.292Z,99793.75
2023-04-24T08:55:54.588Z,99802.03
2023-04-24T08:58:24.558Z,99798.00
2023-04-24T09:00:54.187Z,99792.69
2023-04-24T09:03:24.677Z,99793.59
2023-04-24T09:06:00.083Z,99797.69
2023-04-24T09:08:31.149Z,99784.50
2023-04-24T09:11:03.486Z,99794.50
2023-04-24T09:16:08.785Z,99787.25
2023-04-24T09:18:38.080Z,99789.81
2023-04-24T09:21:15.440Z,99775.38
2023-04-24T09:24:00.160Z,99763.75
2023-04-24T09:26:32.531Z,99772.47
2023-04-24T09:29:02.551Z,99771.97
2023-04-24T09:31:32.728Z,99765.03
2023-04-24T09:34:08.433Z,99758.53
2023-04-24T09:36:41.942Z,99772.22
2023-04-24T09:39:13.128Z,99766.59
2023-04-24T09:41:47.768Z,99766.59
2023-04-24T09:44:24.016Z,99760.34
2023-04-24T09:46:55.681Z,99759.16
2023-04-24T09:49:25.574Z,99756.47
2023-04-24T09:52:11.815Z,99752.34
2023-04-24T09:54:43.388Z,99746.50
2023-04-24T09:57:18.098Z,99740.59
2023-04-24T09:59:50.179Z,99742.94
2023-04-24T10:02:23.598Z,99752.19
2023-04-24T10:05:00.069Z,99744.03
2023-04-24T10:07:40.557Z,99746.31
2023-04-24T10:10:10.700Z,99751.75
2023-04-24T10:12:46.065Z,99746.56
2023-04-24T10:15:17.220Z,99737.94
2023-04-24T10:17:52.993Z,99752.72
2023-04-24T10:20:27.171Z,99745.91
2023-04-24T10:23:00.526Z,99738.94
2023-04-24T10:25:32.217Z,99740.31
2023-04-24T10:28:02.254Z,99735.13
2023-04-24T10:30:35.570Z,99732.16
2023-04-24T10:33:11.657Z,99730.81
2023-04-24T10:35:48.487Z,99712.84
2023-04-24T10:38:34.554Z,99704.84
2023-04-24T10:41:16.789Z,99718.75
2023-04-24T10:44:10.446Z,99728.34
2023-04-24T10:46:42.970Z,99726.13
2023-04-24T10:49:18.789Z,99725.81
2023-04-24T10:51:50.245Z,99720.44
2023-04-24T10:54:29.045Z,99717.63
2023-04-24T10:57:33.833Z,99713.09
2023-04-24T11:00:18.134Z,99706.72
2023-04-24T11:02:53.576Z,99725.28
2023-04-24T11:05:54.540Z,99713.25
2023-04-24T11:08:36.493Z,99706.56
2023-04-24T11:14:12.710Z,99694.69
2023-04-24T11:16:54.682Z,99689.34
2023-04-24T11:19:30.721Z,99671.50
2023-04-24T11:22:03.757Z,99685.25
2023-04-24T11:24:34.974Z,99682.34
2023-04-24T11:27:25.085Z,99686.06
2023-04-24T11:30:03.992Z,99681.91
2023-04-24T11:32:39.546Z,99689.41
2023-04-24T11:35:11.732Z,99683.47
2023-04-24T11:37:43.209Z,99680.53
2023-04-24T11:40:13.539Z,99671.59
2023-04-24T11:42:46.635Z,99667.63
2023-04-24T11:45:17.653Z,99672.03
2023-04-24T11:47:48.164Z,99626.53
2023-04-24T11:50:20.642Z,99653.72
2023-04-24T11:55:32.482Z,99646.19
2023-04-24T11:58:03.731Z,99643.66
2023-04-24T12:00:34.926Z,99643.81
2023-04-24T12:03:09.595Z,99639.06
2023-04-24T12:05:39.626Z,99630.00
2023-04-24T12:08:09.343Z,99623.06
2023-04-24T12:10:43.758Z,99629.50
2023-04-24T12:13:16.216Z,99633.47
2023-04-24T12:15:50.753Z,99636.09
2023-04-24T12:18:20.264Z,99625.75
2023-04-24T12:20:49.599Z,99626.00
2023-04-24T12:23:20.261Z,99635.69
2023-04-24T12:25:49.653Z,99628.97
2023-04-24T12:28:21.597Z,99626.75
2023-04-24T12:30:52.028Z,99618.00
2023-04-24T12:33:21.980Z,99620.84
2023-04-24T12:35:56.133Z,99607.28
2023-04-24T12:38:26.948Z,99620.94
2023-04-24T12:41:05.500Z,99614.81
2023-04-24T12:43:37.495Z,99613.44
2023-04-24T12:51:56.703Z,99611.53
2023-04-24T12:54:26.182Z,99617.81
2023-04-24T12:56:56.493Z,99607.28
2023-04-24T12:59:25.711Z,99609.44
2023-04-24T13:01:55.225Z,99606.91
2023-04-24T13:04:25.671Z,99605.22
2023-04-24T13:06:57.399Z,99601.06
2023-04-24T13:09:27.005Z,99608.84
2023-04-24T13:11:57.397Z,99613.94
2023-04-24T13:14:26.919Z,99585.28
2023-04-24T13:16:56.341Z,99595.94
2023-04-24T13:22:16.187Z,99589.06
2023-04-24T13:24:45.659Z,99583.16
2023-04-24T13:27:15.049Z,99586.06
2023-04-24T13:29:49.480Z,99579.97
2023-04-24T13:32:19.446Z,99581.78
2023-04-24T13:34:50.923Z,99566.25
2023-04-24T13:37:22.948Z,99575.97
2023-04-24T13:39:52.561Z,99575.00
2023-04-24T13:42:27.950Z,99579.66
2023-04-24T13:45:06.092Z,99575.19
2023-04-24T13:47:44.249Z,99578.47
2023-04-24T13:50:13.680Z,99567.94
2023-04-24T13:52:45.125Z,99568.25
2023-04-24T13:55:14.634Z,99563.28
2023-04-24T13:57:45.055Z,99561.00
2023-04-24T14:00:21.850Z,99564.94
2023-04-24T14:02:51.269Z,99556.75
2023-04-24T14:05:23.272Z,99550.06
2023-04-24T14:07:54.806Z,99557.88
2023-04-24T14:10:24.081Z,99553.09
2023-04-24T14:12:54.066Z,99548.53
2023-04-24T14:15:28.531Z,99548.25
2023-04-24T14:17:57.792Z,99541.94
2023-04-24T14:20:32.855Z,99540.25
2023-04-24T14:23:04.722Z,99541.34
2023-04-24T14:25:34.325Z,99548.16
2023-04-24T14:28:03.842Z,99533.56
2023-04-24T14:30:33.370Z,99546.59
2023-04-24T14:33:02.677Z,99553.78
2023-04-24T14:35:33.633Z,99545.53
2023-04-24T14:38:10.380Z,99550.16
2023-04-24T14:43:12.856Z,99541.91
2023-04-24T14:45:42.816Z,99539.72
2023-04-24T14:48:18.761Z,99547.03
2023-04-24T14:50:48.128Z,99543.78
2023-04-24T14:53:19.831Z,99534.47
2023-04-24T14:55:49.274Z,99538.72
2023-04-24T14:58:18.607Z,99534.22
2023-04-24T15:00:50.710Z,99535.84
2023-04-24T15:03:22.026Z,99529.75
2023-04-24T15:06:01.698Z,99530.84
2023-04-24T15:08:33.131Z,99540.59
2023-04-24T15:13:48.059Z,99536.25
2023-04-24T15:16:17.882Z,99533.81
2023-04-24T15:18:47.242Z,99539.06
2023-04-24T15:21:16.557Z,99534.56
2023-04-24T15:23:48.194Z,99536.53
2023-04-24T15:26:18.059Z,99533.47
2023-04-24T15:28:47.758Z,99538.97
2023-04-24T15:31:17.112Z,99531.59
2023-04-24T15:33:46.698Z,99541.16
2023-04-24T15:36:21.978Z,99520.25
2023-04-24T15:38:53.397Z,99521.84
2023-04-24T15:41:22.827Z,99538.69
2023-04-24T15:43:52.036Z,99541.28
2023-04-24T15:46:22.445Z,99527.38
2023-04-24T15:48:51.979Z,99540.47
2023-04-24T15:51:21.420Z,99540.56
2023-04-24T15:53:52.682Z,99534.50
2023-04-24T15:56:28.197Z,99538.78
2023-04-24T15:59:00.523Z,99544.88
2023-04-24T16:01:30.888Z,99542.72
2023-04-24T16:04:00.508Z,99535.88
2023-04-24T16:06:35.539Z,99522.81
2023-04-24T16:09:08.245Z,99542.69
2023-04-24T16:11:42.561Z,99537.25
2023-04-24T16:14:11.884Z,99545.25
2023-04-24T16:16:41.152Z,99540.72
2023-04-24T16:21:51.637Z,99546.09
2023-04-24T16:24:33.031Z,99507.88
2023-04-24T16:27:02.966Z,99552.28
2023-04-24T16:29:32.949Z,99548.69
2023-04-24T16:32:02.408Z,99550.91
2023-04-24T16:34:31.691Z,99548.63
2023-04-24T16:37:01.457Z,99548.28
2023-04-24T16:39:33.845Z,99542.00
2023-04-24T16:42:03.390Z,99543.50
2023-04-24T16:44:33.660Z,99556.63
2023-04-24T16:47:07.254Z,99553.69
2023-04-24T16:49:36.722Z,99559.28
2023-04-24T16:52:06.149Z,99565.78
2023-04-24T16:54:37.544Z,99560.63
2023-04-24T16:57:11.883Z,99567.13
2023-04-24T17:02:16.807Z,99564.31
2023-04-24T17:04:56.469Z,99567.22
2023-04-24T17:07:26.087Z,99565.66
2023-04-24T17:09:57.841Z,99566.09
2023-04-24T17:12:27.302Z,99576.56
2023-04-24T17:14:56.590Z,99579.34
2023-04-24T17:17:25.969Z,99578.47
2023-04-24T17:19:55.206Z,99579.28
2023-04-24T17:22:39.222Z,99578.94
2023-04-24T17:25:11.896Z,99583.56
2023-04-24T17:27:41.333Z,99577.16
2023-04-24T17:30:17.343Z,99583.34
2023-04-24T17:32:51.767Z,99585.94
2023-04-24T17:35:22.771Z,99575.91
2023-04-24T17:37:57.383Z,99585.69
2023-04-24T17:40:28.688Z,99589.88
2023-04-24T17:42:58.007Z,99589.56
2023-04-24T17:45:27.324Z,99601.03
2023-04-24T17:47:56.804Z,99591.94
2023-04-24T17:50:26.309Z,99591.34
2023-04-24T17:52:55.628Z,99593.03
2023-04-24T17:55:25.199Z,99599.00
2023-04-24T17:57:57.093Z,99599.03
2023-04-24T18:00:26.165Z,99595.38
2023-04-24T18:03:00.616Z,99587.66
2023-04-24T18:05:31.130Z,99596.88
2023-04-24T18:08:01.348Z,99588.19
2023-04-24T18:10:32.612Z,99592.34
2023-04-24T18:13:04.395Z,99604.09
2023-04-24T18:15:35.148Z,99602.97
2023-04-24T18:18:09.748Z,99589.97
2023-04-24T18:20:39.800Z,99578.94
2023-04-24T18:23:10.598Z,99601.16
2023-04-24T18:25:40.053Z,99596.19
2023-04-24T18:28:15.547Z,99603.53
2023-04-24T18:30:50.257Z,99601.53
2023-04-24T18:33:20.426Z,99600.34
2023-04-24T18:35:50.939Z,99612.81
2023-04-24T18:38:20.167Z,99607.13
2023-04-24T18:40:49.570Z,99601.72
2023-04-24T18:43:20.823Z,99612.53
2023-04-24T18:45:55.198Z,99613.03
2023-04-24T18:48:24.896Z,99611.41
2023-04-24T18:50:58.273Z,99615.25
2023-04-24T18:53:27.769Z,99615.53
2023-04-24T18:55:57.061Z,99617.34
2023-04-24T18:58:33.410Z,99613.66
2023-04-24T19:01:02.833Z,99615.41
2023-04-24T19:03:32.359Z,99613.91
2023-04-24T19:06:07.154Z,99619.22
2023-04-24T19:08:38.178Z,99622.19
2023-04-24T19:11:07.907Z,99618.78
2023-04-24T19:13:39.089Z,99626.53
2023-04-24T19:16:08.590Z,99618.09
2023-04-24T19:18:37.893Z,99622.38
2023-04-24T19:21:07.574Z,99626.00
2023-04-24T19:23:39.481Z,99622.78
2023-04-24T19:26:14.280Z,99623.75
2023-04-24T19:28:45.527Z,99625.75
2023-04-24T19:31:15.192Z,99628.75
2023-04-24T19:36:34.577Z,99629.53
2023-04-24T19:39:09.648Z,99635.78
2023-04-24T19:41:39.085Z,99632.31
2023-04-24T19:44:10.699Z,99622.94
2023-04-24T19:46:39.735Z,99632.59
2023-04-24T19:49:09.050Z,99629.50
2023-04-24T19:51:39.871Z,99622.69
2023-04-24T19:54:09.730Z,99626.06
2023-04-24T19:56:45.028Z,99625.03
2023-04-24T19:59:16.372Z,99625.03
2023-04-24T20:01:45.837Z,99621.63
2023-04-24T20:04:15.388Z,99625.00
2023-04-24T20:06:44.922Z,99633.34
2023-04-24T20:09:14.398Z,99633.78
2023-04-24T20:11:45.360Z,99638.72
2023-04-24T20:14:21.781Z,99616.41
2023-04-24T20:16:51.112Z,99644.81
2023-04-24T20:19:20.333Z,99630.31
2023-04-24T20:21:54.990Z,99635.63
2023-04-24T20:24:24.257Z,99628.94
2023-04-24T20:26:53.706Z,99631.44
2023-04-24T20:29:30.300Z,99633.94
2023-04-24T20:32:00.158Z,99638.47
2023-04-24T20:34:29.376Z,99633.44
2023-04-24T20:37:03.946Z,99637.06
2023-04-24T20:39:33.278Z,99636.28
2023-04-24T20:42:02.585Z,99641.78
2023-04-24T20:44:33.910Z,99640.34
2023-04-24T20:47:03.526Z,99632.69
2023-04-24T20:49:37.994Z,99637.13
2023-04-24T20:52:07.702Z,99630.47
2023-04-24T20:54:36.928Z,99638.22
2023-04-24T20:57:06.365Z,99637.22
2023-04-24T20:59:37.672Z,99636.97
2023-04-24T21:04:41.827Z,99635.28
2023-04-24T21:07:12.604Z,99637.13
2023-04-24T21:09:41.948Z,99630.41
2023-04-24T21:12:11.151Z,99632.09
2023-04-24T21:14:42.490Z,99627.88
2023-04-24T21:17:11.825Z,99622.13
2023-04-24T21:19:40.926Z,99630.94
2023-04-24T21:22:10.339Z,99631.97
2023-04-24T21:24:39.502Z,99637.22
2023-04-24T21:27:09.446Z,99637.25
2023-04-24T21:29:39.158Z,99637.31
2023-04-24T21:32:10.593Z,99634.72
2023-04-24T21:34:40.023Z,99639.84
2023-04-24T21:37:09.355Z,99627.63
2023-04-24T21:39:38.856Z,99640.47
2023-04-24T21:42:08.211Z,99633.69
2023-04-24T21:44:48.583Z,99632.09
2023-04-24T21:47:20.354Z,99640.00
2023-04-24T21:49:49.888Z,99642.66
2023-04-24T21:52:29.048Z,99647.13
2023-04-24T21:54:59.604Z,99649.69
2023-04-24T21:57:28.914Z,99639.97
2023-04-24T22:00:03.422Z,99643.31
2023-04-24T22:02:37.504Z,99636.38
2023-04-24T22:05:14.458Z,99629.44
2023-04-24T22:07:50.386Z,99619.81
2023-04-24T22:10:25.239Z,99625.88
2023-04-24T22:12:54.627Z,99619.72
2023-04-24T22:15:24.027Z,99612.72
2023-04-24T22:17:57.221Z,99617.59
2023-04-24T22:20:26.572Z,99616.53
2023-04-24T22:23:06.006Z,99617.22
2023-04-24T22:25:35.537Z,99612.03
2023-04-24T22:28:04.914Z,99601.66
2023-04-24T22:30:35.032Z,99615.22
2023-04-24T22:33:06.330Z,99615.19
2023-04-24T22:35:36.942Z,99617.94
2023-04-24T22:38:06.263Z,99595.78
2023-04-24T22:40:36.047Z,99620.78
2023-04-24T22:43:17.071Z,99611.34
2023-04-24T22:45:46.370Z,99604.63
2023-04-24T22:48:18.146Z,99614.19
2023-04-24T22:50:47.019Z,99616.75
2023-04-24T22:53:16.270Z,99614.50
2023-04-24T22:55:46.055Z,99629.28
2023-04-24T22:58:15.412Z,99628.47
2023-04-24T23:00:45.811Z,99636.31
2023-04-24T23:03:17.240Z,99641.59
2023-04-24T23:05:46.684Z,99621.31
2023-04-24T23:08:16.016Z,99645.31
2023-04-24T23:10:51.948Z,99630.94
2023-04-24T23:13:21.375Z,99639.56
2023-04-24T23:15:53.266Z,99643.13
2023-04-24T23:18:25.727Z,99639.84
2023-04-24T23:20:55.047Z,99646.72
2023-04-24T23:23:24.514Z,99644.13
2023-04-24T23:25:53.865Z,99646.72
2023-04-24T23:28:23.113Z,99639.78
2023-04-24T23:30:52.409Z,99645.72
2023-04-24T23:33:22.200Z,99643.97
2023-04-24T23:35:59.906Z,99637.13
2023-04-24T23:38:34.005Z,99632.00
2023-04-24T23:41:13.628Z,99638.94
2023-04-24T23:43:43.101Z,99635.63
2023-04-24T23:46:12.374Z,99634.78
2023-04-24T23:48:41.754Z,99641.72
2023-04-24T23:51:13.050Z,99643.59
2023-04-24T23:53:42.446Z,99639.41
2023-04-24T23:56:11.644Z,99644.66
2023-04-24T23:58:40.882Z,99639.53
